Aviation Digital Data Service (ADDS)

Output produced by METARs form (2115 UTC 20 October 2018)
found at http://www.aviationweather.gov/metar/data/
 
OBBI 202100Z 14004KT CAVOK 29/19 Q1013 NOSIG
TAF OBBI 201700Z 2018/2200 VRB05KT 8000 NSC 
     BECMG 2106/2108 11008KT 
     PROB30 
     TEMPO 2107/2115 34017G27KT 5000 TSRA FEW040CB BKN100